sensor_id;sensor_type;location;lat;lon;timestamp;temperature;humidity
30049;DHT22;16879;50.852;15.602;2022-08-02T00:01:52;16.80;99.90
30049;DHT22;16879;50.852;15.602;2022-08-02T00:04:18;16.80;99.90
30049;DHT22;16879;50.852;15.602;2022-08-02T00:06:45;16.80;99.90
30049;DHT22;16879;50.852;15.602;2022-08-02T00:09:10;16.80;99.90
30049;DHT22;16879;50.852;15.602;2022-08-02T00:11:37;16.80;99.90
30049;DHT22;16879;50.852;15.602;2022-08-02T00:14:03;16.80;99.90
30049;DHT22;16879;50.852;15.602;2022-08-02T00:16:28;16.80;99.90
30049;DHT22;16879;50.852;15.602;2022-08-02T00:23:48;16.90;99.90
30049;DHT22;16879;50.852;15.602;2022-08-02T00:31:06;16.90;99.90
30049;DHT22;16879;50.852;15.602;2022-08-02T00:35:58;17.00;99.90
30049;DHT22;16879;50.852;15.602;2022-08-02T00:40:51;17.00;99.90
30049;DHT22;16879;50.852;15.602;2022-08-02T00:43:18;17.00;99.90
30049;DHT22;16879;50.852;15.602;2022-08-02T00:48:11;17.10;99.90
30049;DHT22;16879;50.852;15.602;2022-08-02T00:50:39;17.10;99.90
30049;DHT22;16879;50.852;15.602;2022-08-02T00:53:05;17.10;99.90
30049;DHT22;16879;50.852;15.602;2022-08-02T00:55:34;17.10;99.90
30049;DHT22;16879;50.852;15.602;2022-08-02T00:58:00;17.10;99.90
30049;DHT22;16879;50.852;15.602;2022-08-02T01:00:26;17.10;99.90
30049;DHT22;16879;50.852;15.602;2022-08-02T01:02:52;17.10;99.90
30049;DHT22;16879;50.852;15.602;2022-08-02T01:05:18;17.10;99.90
30049;DHT22;16879;50.852;15.602;2022-08-02T01:07:44;17.10;99.90
30049;DHT22;16879;50.852;15.602;2022-08-02T01:12:36;17.10;99.90
30049;DHT22;16879;50.852;15.602;2022-08-02T01:15:08;17.10;99.90
30049;DHT22;16879;50.852;15.602;2022-08-02T01:18:04;17.10;99.90
30049;DHT22;16879;50.852;15.602;2022-08-02T01:29:36;17.10;99.90
30049;DHT22;16879;50.852;15.602;2022-08-02T01:32:18;17.10;99.90
30049;DHT22;16879;50.852;15.602;2022-08-02T01:37:40;17.10;99.90
30049;DHT22;16879;50.852;15.602;2022-08-02T01:40:11;17.10;99.90
30049;DHT22;16879;50.852;15.602;2022-08-02T01:42:40;17.00;99.90
30049;DHT22;16879;50.852;15.602;2022-08-02T01:45:09;17.00;99.90
30049;DHT22;16879;50.852;15.602;2022-08-02T01:47:38;17.00;99.90
30049;DHT22;16879;50.852;15.602;2022-08-02T01:50:06;16.90;99.90
30049;DHT22;16879;50.852;15.602;2022-08-02T01:52:35;16.80;99.90
30049;DHT22;16879;50.852;15.602;2022-08-02T01:55:19;16.80;99.90
30049;DHT22;16879;50.852;15.602;2022-08-02T01:57:52;16.70;99.90
30049;DHT22;16879;50.852;15.602;2022-08-02T02:00:22;16.60;99.90
30049;DHT22;16879;50.852;15.602;2022-08-02T02:02:52;16.70;99.90
30049;DHT22;16879;50.852;15.602;2022-08-02T02:05:20;16.60;99.90
30049;DHT22;16879;50.852;15.602;2022-08-02T02:07:50;16.50;99.90
30049;DHT22;16879;50.852;15.602;2022-08-02T02:10:21;16.50;99.90
30049;DHT22;16879;50.852;15.602;2022-08-02T02:12:50;16.40;99.90
30049;DHT22;16879;50.852;15.602;2022-08-02T02:15:17;16.40;99.90
30049;DHT22;16879;50.852;15.602;2022-08-02T02:17:45;16.40;99.90
30049;DHT22;16879;50.852;15.602;2022-08-02T02:20:15;16.30;99.90
30049;DHT22;16879;50.852;15.602;2022-08-02T02:22:42;16.30;99.90
30049;DHT22;16879;50.852;15.602;2022-08-02T02:25:09;16.30;99.90
30049;DHT22;16879;50.852;15.602;2022-08-02T02:27:36;16.20;99.90
30049;DHT22;16879;50.852;15.602;2022-08-02T02:30:05;16.20;99.90
30049;DHT22;16879;50.852;15.602;2022-08-02T02:32:32;16.20;99.90
30049;DHT22;16879;50.852;15.602;2022-08-02T02:35:00;16.10;99.90
30049;DHT22;16879;50.852;15.602;2022-08-02T02:37:29;16.10;99.90
30049;DHT22;16879;50.852;15.602;2022-08-02T02:39:57;16.10;99.90
30049;DHT22;16879;50.852;15.602;2022-08-02T02:42:30;16.00;99.90
30049;DHT22;16879;50.852;15.602;2022-08-02T02:44:57;16.00;99.90
30049;DHT22;16879;50.852;15.602;2022-08-02T02:47:24;15.90;99.90
30049;DHT22;16879;50.852;15.602;2022-08-02T02:49:52;15.90;99.90
30049;DHT22;16879;50.852;15.602;2022-08-02T02:52:19;15.90;99.90
30049;DHT22;16879;50.852;15.602;2022-08-02T02:54:47;15.80;99.90
30049;DHT22;16879;50.852;15.602;2022-08-02T02:57:17;15.80;99.90
30049;DHT22;16879;50.852;15.602;2022-08-02T02:59:44;15.80;99.90
30049;DHT22;16879;50.852;15.602;2022-08-02T03:04:36;15.70;99.90
30049;DHT22;16879;50.852;15.602;2022-08-02T03:07:04;15.60;99.90
30049;DHT22;16879;50.852;15.602;2022-08-02T03:09:31;15.60;99.90
30049;DHT22;16879;50.852;15.602;2022-08-02T03:11:57;15.60;99.90
30049;DHT22;16879;50.852;15.602;2022-08-02T03:14:22;15.60;99.90
30049;DHT22;16879;50.852;15.602;2022-08-02T03:16:51;15.60;99.90
30049;DHT22;16879;50.852;15.602;2022-08-02T03:19:18;15.60;99.90
30049;DHT22;16879;50.852;15.602;2022-08-02T03:21:45;15.50;99.90
30049;DHT22;16879;50.852;15.602;2022-08-02T03:24:12;15.60;99.90
30049;DHT22;16879;50.852;15.602;2022-08-02T03:26:38;15.50;99.90
30049;DHT22;16879;50.852;15.602;2022-08-02T03:29:05;15.50;99.90
30049;DHT22;16879;50.852;15.602;2022-08-02T03:31:31;15.50;99.90
30049;DHT22;16879;50.852;15.602;2022-08-02T03:33:58;15.50;99.90
30049;DHT22;16879;50.852;15.602;2022-08-02T03:36:27;15.50;99.90
30049;DHT22;16879;50.852;15.602;2022-08-02T03:38:55;15.50;99.90
30049;DHT22;16879;50.852;15.602;2022-08-02T03:41:22;15.50;99.90
30049;DHT22;16879;50.852;15.602;2022-08-02T03:43:49;15.50;99.90
30049;DHT22;16879;50.852;15.602;2022-08-02T03:46:18;15.50;99.90
30049;DHT22;16879;50.852;15.602;2022-08-02T03:48:45;15.50;99.90
30049;DHT22;16879;50.852;15.602;2022-08-02T03:51:12;15.50;99.90
30049;DHT22;16879;50.852;15.602;2022-08-02T03:53:38;15.50;99.90
30049;DHT22;16879;50.852;15.602;2022-08-02T03:56:05;15.50;99.90
30049;DHT22;16879;50.852;15.602;2022-08-02T03:58:32;15.50;99.90
30049;DHT22;16879;50.852;15.602;2022-08-02T04:03:24;15.50;99.90
30049;DHT22;16879;50.852;15.602;2022-08-02T04:05:51;15.50;99.90
30049;DHT22;16879;50.852;15.602;2022-08-02T04:08:18;15.50;99.90
30049;DHT22;16879;50.852;15.602;2022-08-02T04:10:44;15.50;99.90
30049;DHT22;16879;50.852;15.602;2022-08-02T04:13:31;15.50;99.90
30049;DHT22;16879;50.852;15.602;2022-08-02T04:16:25;15.40;99.90
30049;DHT22;16879;50.852;15.602;2022-08-02T04:18:54;15.50;99.90
30049;DHT22;16879;50.852;15.602;2022-08-02T04:21:23;15.40;99.90
30049;DHT22;16879;50.852;15.602;2022-08-02T04:23:50;15.40;99.90
30049;DHT22;16879;50.852;15.602;2022-08-02T04:26:18;15.40;99.90
30049;DHT22;16879;50.852;15.602;2022-08-02T04:28:45;15.50;99.90
30049;DHT22;16879;50.852;15.602;2022-08-02T04:31:13;15.50;99.90
30049;DHT22;16879;50.852;15.602;2022-08-02T04:33:39;15.50;99.90
30049;DHT22;16879;50.852;15.602;2022-08-02T04:36:06;15.50;99.90
30049;DHT22;16879;50.852;15.602;2022-08-02T04:38:32;15.50;99.90
30049;DHT22;16879;50.852;15.602;2022-08-02T04:43:25;15.60;99.90
30049;DHT22;16879;50.852;15.602;2022-08-02T04:45:52;15.70;99.90
30049;DHT22;16879;50.852;15.602;2022-08-02T04:48:20;15.70;99.90
30049;DHT22;16879;50.852;15.602;2022-08-02T04:50:46;15.80;99.90
30049;DHT22;16879;50.852;15.602;2022-08-02T04:53:12;15.80;99.90
30049;DHT22;16879;50.852;15.602;2022-08-02T04:55:38;15.80;99.90
30049;DHT22;16879;50.852;15.602;2022-08-02T05:02:58;16.00;99.90
30049;DHT22;16879;50.852;15.602;2022-08-02T05:05:24;16.10;99.90
30049;DHT22;16879;50.852;15.602;2022-08-02T05:07:50;16.10;99.90
30049;DHT22;16879;50.852;15.602;2022-08-02T05:10:16;16.20;99.90
30049;DHT22;16879;50.852;15.602;2022-08-02T05:15:10;16.30;99.90
30049;DHT22;16879;50.852;15.602;2022-08-02T05:17:36;16.40;99.90
30049;DHT22;16879;50.852;15.602;2022-08-02T05:20:04;16.50;99.90
30049;DHT22;16879;50.852;15.602;2022-08-02T05:22:30;16.60;99.90
30049;DHT22;16879;50.852;15.602;2022-08-02T05:24:56;16.60;99.90
30049;DHT22;16879;50.852;15.602;2022-08-02T05:27:22;16.70;99.90
30049;DHT22;16879;50.852;15.602;2022-08-02T05:29:49;16.80;99.90
30049;DHT22;16879;50.852;15.602;2022-08-02T05:32:17;16.90;99.90
30049;DHT22;16879;50.852;15.602;2022-08-02T05:34:43;16.90;99.90
30049;DHT22;16879;50.852;15.602;2022-08-02T05:37:09;17.00;99.90
30049;DHT22;16879;50.852;15.602;2022-08-02T05:39:35;17.00;99.90
30049;DHT22;16879;50.852;15.602;2022-08-02T05:42:00;17.10;99.90
30049;DHT22;16879;50.852;15.602;2022-08-02T05:44:26;17.20;99.90
30049;DHT22;16879;50.852;15.602;2022-08-02T05:46:52;17.20;99.90
30049;DHT22;16879;50.852;15.602;2022-08-02T05:49:18;17.30;99.90
30049;DHT22;16879;50.852;15.602;2022-08-02T05:52:03;17.40;99.90
30049;DHT22;16879;50.852;15.602;2022-08-02T05:57:04;17.60;99.90
30049;DHT22;16879;50.852;15.602;2022-08-02T05:59:33;17.60;99.90
30049;DHT22;16879;50.852;15.602;2022-08-02T06:02:03;17.80;99.90
30049;DHT22;16879;50.852;15.602;2022-08-02T06:04:46;17.90;99.90
30049;DHT22;16879;50.852;15.602;2022-08-02T06:07:13;18.00;99.90
30049;DHT22;16879;50.852;15.602;2022-08-02T06:09:42;18.10;99.90
30049;DHT22;16879;50.852;15.602;2022-08-02T06:12:11;18.20;99.90
30049;DHT22;16879;50.852;15.602;2022-08-02T06:14:39;18.30;99.90
30049;DHT22;16879;50.852;15.602;2022-08-02T06:17:06;18.40;99.90
30049;DHT22;16879;50.852;15.602;2022-08-02T06:19:33;18.50;99.90
30049;DHT22;16879;50.852;15.602;2022-08-02T06:22:01;18.60;99.90
30049;DHT22;16879;50.852;15.602;2022-08-02T06:24:44;18.70;99.90
30049;DHT22;16879;50.852;15.602;2022-08-02T06:27:14;18.80;99.90
30049;DHT22;16879;50.852;15.602;2022-08-02T06:29:43;18.90;99.90
30049;DHT22;16879;50.852;15.602;2022-08-02T06:32:09;19.00;99.90
30049;DHT22;16879;50.852;15.602;2022-08-02T06:34:36;19.00;99.90
30049;DHT22;16879;50.852;15.602;2022-08-02T06:39:46;19.20;99.90
30049;DHT22;16879;50.852;15.602;2022-08-02T06:42:15;19.20;99.90
30049;DHT22;16879;50.852;15.602;2022-08-02T06:47:08;19.30;99.90
30049;DHT22;16879;50.852;15.602;2022-08-02T06:49:34;19.40;99.90
30049;DHT22;16879;50.852;15.602;2022-08-02T06:52:00;19.50;99.90
30049;DHT22;16879;50.852;15.602;2022-08-02T06:54:25;19.50;99.90
30049;DHT22;16879;50.852;15.602;2022-08-02T06:56:51;19.60;99.90
30049;DHT22;16879;50.852;15.602;2022-08-02T06:59:17;19.70;99.90
30049;DHT22;16879;50.852;15.602;2022-08-02T07:01:43;19.70;99.90
30049;DHT22;16879;50.852;15.602;2022-08-02T07:06:35;19.90;99.90
30049;DHT22;16879;50.852;15.602;2022-08-02T07:09:00;20.00;99.90
30049;DHT22;16879;50.852;15.602;2022-08-02T07:11:26;20.10;99.90
30049;DHT22;16879;50.852;15.602;2022-08-02T07:13:53;20.10;99.90
30049;DHT22;16879;50.852;15.602;2022-08-02T07:16:18;20.30;99.90
30049;DHT22;16879;50.852;15.602;2022-08-02T07:18:44;20.40;99.90
30049;DHT22;16879;50.852;15.602;2022-08-02T07:21:10;20.40;99.90
30049;DHT22;16879;50.852;15.602;2022-08-02T07:23:36;20.60;99.90
30049;DHT22;16879;50.852;15.602;2022-08-02T07:26:01;20.70;99.90
30049;DHT22;16879;50.852;15.602;2022-08-02T07:28:27;20.80;99.90
30049;DHT22;16879;50.852;15.602;2022-08-02T07:30:53;20.90;99.90
30049;DHT22;16879;50.852;15.602;2022-08-02T07:33:19;20.90;99.90
30049;DHT22;16879;50.852;15.602;2022-08-02T07:35:45;21.00;99.90
30049;DHT22;16879;50.852;15.602;2022-08-02T07:38:10;21.20;99.90
30049;DHT22;16879;50.852;15.602;2022-08-02T07:40:36;21.30;99.90
30049;DHT22;16879;50.852;15.602;2022-08-02T07:43:02;21.40;99.90
30049;DHT22;16879;50.852;15.602;2022-08-02T07:45:29;21.50;99.90
30049;DHT22;16879;50.852;15.602;2022-08-02T07:47:55;21.40;99.90
30049;DHT22;16879;50.852;15.602;2022-08-02T07:50:21;21.40;99.90
30049;DHT22;16879;50.852;15.602;2022-08-02T07:52:48;21.40;99.90
30049;DHT22;16879;50.852;15.602;2022-08-02T07:55:15;21.40;99.90
30049;DHT22;16879;50.852;15.602;2022-08-02T07:57:42;21.40;99.90
30049;DHT22;16879;50.852;15.602;2022-08-02T08:00:09;21.40;99.90
30049;DHT22;16879;50.852;15.602;2022-08-02T08:02:35;21.40;99.90
30049;DHT22;16879;50.852;15.602;2022-08-02T08:05:01;21.50;99.90
30049;DHT22;16879;50.852;15.602;2022-08-02T08:07:27;21.60;99.90
30049;DHT22;16879;50.852;15.602;2022-08-02T08:09:53;21.60;99.90
30049;DHT22;16879;50.852;15.602;2022-08-02T08:12:19;21.60;99.90
30049;DHT22;16879;50.852;15.602;2022-08-02T08:14:45;21.60;99.90
30049;DHT22;16879;50.852;15.602;2022-08-02T08:17:11;21.60;99.90
30049;DHT22;16879;50.852;15.602;2022-08-02T08:19:37;21.60;99.90
30049;DHT22;16879;50.852;15.602;2022-08-02T08:22:03;21.70;99.90
30049;DHT22;16879;50.852;15.602;2022-08-02T08:24:30;21.90;99.90
30049;DHT22;16879;50.852;15.602;2022-08-02T08:26:56;22.00;99.90
30049;DHT22;16879;50.852;15.602;2022-08-02T08:29:22;22.00;99.90
30049;DHT22;16879;50.852;15.602;2022-08-02T08:31:48;22.00;99.90
30049;DHT22;16879;50.852;15.602;2022-08-02T08:34:15;22.10;99.90
30049;DHT22;16879;50.852;15.602;2022-08-02T08:36:41;22.10;99.90
30049;DHT22;16879;50.852;15.602;2022-08-02T08:39:07;22.10;99.90
30049;DHT22;16879;50.852;15.602;2022-08-02T08:41:35;22.20;99.90
30049;DHT22;16879;50.852;15.602;2022-08-02T08:44:02;22.30;99.90
30049;DHT22;16879;50.852;15.602;2022-08-02T08:46:31;22.30;99.90
30049;DHT22;16879;50.852;15.602;2022-08-02T08:49:25;22.50;99.90
30049;DHT22;16879;50.852;15.602;2022-08-02T08:51:55;22.50;99.90
30049;DHT22;16879;50.852;15.602;2022-08-02T08:54:27;22.60;99.90
30049;DHT22;16879;50.852;15.602;2022-08-02T08:56:55;22.50;99.90
30049;DHT22;16879;50.852;15.602;2022-08-02T08:59:21;22.50;99.90
30049;DHT22;16879;50.852;15.602;2022-08-02T09:01:48;22.40;99.90
30049;DHT22;16879;50.852;15.602;2022-08-02T09:04:14;22.30;99.90
30049;DHT22;16879;50.852;15.602;2022-08-02T09:06:40;22.30;99.90
30049;DHT22;16879;50.852;15.602;2022-08-02T09:09:07;22.20;99.90
30049;DHT22;16879;50.852;15.602;2022-08-02T09:11:33;22.30;99.90
30049;DHT22;16879;50.852;15.602;2022-08-02T09:14:00;22.30;99.90
30049;DHT22;16879;50.852;15.602;2022-08-02T09:16:34;22.40;99.90
30049;DHT22;16879;50.852;15.602;2022-08-02T09:19:21;22.60;99.90
30049;DHT22;16879;50.852;15.602;2022-08-02T09:21:59;22.70;99.90
30049;DHT22;16879;50.852;15.602;2022-08-02T09:26:51;22.70;99.90
30049;DHT22;16879;50.852;15.602;2022-08-02T09:29:20;22.70;99.90
30049;DHT22;16879;50.852;15.602;2022-08-02T09:31:46;22.70;99.90
30049;DHT22;16879;50.852;15.602;2022-08-02T09:34:12;22.70;99.90
30049;DHT22;16879;50.852;15.602;2022-08-02T09:36:40;22.70;99.90
30049;DHT22;16879;50.852;15.602;2022-08-02T09:39:13;22.60;99.90
30049;DHT22;16879;50.852;15.602;2022-08-02T09:41:44;22.70;99.90
30049;DHT22;16879;50.852;15.602;2022-08-02T09:44:13;22.90;99.90
30049;DHT22;16879;50.852;15.602;2022-08-02T09:46:44;23.00;99.90
30049;DHT22;16879;50.852;15.602;2022-08-02T09:49:14;23.10;99.90
30049;DHT22;16879;50.852;15.602;2022-08-02T09:51:52;23.20;99.90
30049;DHT22;16879;50.852;15.602;2022-08-02T09:54:26;23.40;99.90
30049;DHT22;16879;50.852;15.602;2022-08-02T09:56:58;23.60;99.90
30049;DHT22;16879;50.852;15.602;2022-08-02T09:59:25;23.70;99.90
30049;DHT22;16879;50.852;15.602;2022-08-02T10:01:53;23.90;99.90
30049;DHT22;16879;50.852;15.602;2022-08-02T10:04:21;23.90;99.90
30049;DHT22;16879;50.852;15.602;2022-08-02T10:09:15;23.70;99.90
30049;DHT22;16879;50.852;15.602;2022-08-02T10:14:09;23.50;99.90
30049;DHT22;16879;50.852;15.602;2022-08-02T10:16:41;23.50;99.90
30049;DHT22;16879;50.852;15.602;2022-08-02T10:19:08;23.50;99.90
30049;DHT22;16879;50.852;15.602;2022-08-02T10:21:55;23.50;99.90
30049;DHT22;16879;50.852;15.602;2022-08-02T10:24:25;23.40;99.90
30049;DHT22;16879;50.852;15.602;2022-08-02T10:26:52;23.50;99.90
30049;DHT22;16879;50.852;15.602;2022-08-02T10:29:23;23.50;99.90
30049;DHT22;16879;50.852;15.602;2022-08-02T10:32:01;23.50;99.90
30049;DHT22;16879;50.852;15.602;2022-08-02T10:34:40;23.50;99.90
30049;DHT22;16879;50.852;15.602;2022-08-02T10:37:08;23.50;99.90
30049;DHT22;16879;50.852;15.602;2022-08-02T10:39:41;23.50;99.90
30049;DHT22;16879;50.852;15.602;2022-08-02T10:42:08;23.50;99.90
30049;DHT22;16879;50.852;15.602;2022-08-02T10:44:35;23.60;99.90
30049;DHT22;16879;50.852;15.602;2022-08-02T10:49:54;23.90;99.90
30049;DHT22;16879;50.852;15.602;2022-08-02T10:52:22;24.10;99.90
30049;DHT22;16879;50.852;15.602;2022-08-02T10:55:00;24.30;99.90
30049;DHT22;16879;50.852;15.602;2022-08-02T10:57:28;24.60;99.90
30049;DHT22;16879;50.852;15.602;2022-08-02T11:05:14;24.30;99.90
30049;DHT22;16879;50.852;15.602;2022-08-02T11:07:45;24.20;99.90
30049;DHT22;16879;50.852;15.602;2022-08-02T11:10:33;24.10;99.90
30049;DHT22;16879;50.852;15.602;2022-08-02T11:15:47;24.20;99.90
30049;DHT22;16879;50.852;15.602;2022-08-02T11:18:13;24.30;99.90
30049;DHT22;16879;50.852;15.602;2022-08-02T11:20:39;24.40;99.90
30049;DHT22;16879;50.852;15.602;2022-08-02T11:23:36;24.40;99.90
30049;DHT22;16879;50.852;15.602;2022-08-02T11:28:58;24.80;99.90
30049;DHT22;16879;50.852;15.602;2022-08-02T11:31:24;25.00;99.90
30049;DHT22;16879;50.852;15.602;2022-08-02T11:33:51;25.20;99.90
30049;DHT22;16879;50.852;15.602;2022-08-02T11:36:17;25.20;99.90
30049;DHT22;16879;50.852;15.602;2022-08-02T11:38:44;25.10;99.90
30049;DHT22;16879;50.852;15.602;2022-08-02T11:41:20;25.10;99.90
30049;DHT22;16879;50.852;15.602;2022-08-02T11:43:53;24.80;99.90
30049;DHT22;16879;50.852;15.602;2022-08-02T11:46:19;24.70;99.90
30049;DHT22;16879;50.852;15.602;2022-08-02T11:48:45;24.80;99.90
30049;DHT22;16879;50.852;15.602;2022-08-02T11:51:14;25.00;99.90
30049;DHT22;16879;50.852;15.602;2022-08-02T11:56:18;25.40;99.90
30049;DHT22;16879;50.852;15.602;2022-08-02T11:59:06;25.40;99.90
30049;DHT22;16879;50.852;15.602;2022-08-02T12:04:17;25.40;99.90
30049;DHT22;16879;50.852;15.602;2022-08-02T12:06:43;25.20;99.90
30049;DHT22;16879;50.852;15.602;2022-08-02T12:09:11;25.30;99.90
30049;DHT22;16879;50.852;15.602;2022-08-02T12:11:38;25.40;99.90
30049;DHT22;16879;50.852;15.602;2022-08-02T12:14:05;25.50;99.90
30049;DHT22;16879;50.852;15.602;2022-08-02T12:16:35;25.50;99.90
30049;DHT22;16879;50.852;15.602;2022-08-02T12:19:22;25.70;99.90
30049;DHT22;16879;50.852;15.602;2022-08-02T12:22:05;25.90;99.90
30049;DHT22;16879;50.852;15.602;2022-08-02T12:24:32;26.10;99.90
30049;DHT22;16879;50.852;15.602;2022-08-02T12:26:59;26.20;99.90
30049;DHT22;16879;50.852;15.602;2022-08-02T12:29:32;26.20;99.90
30049;DHT22;16879;50.852;15.602;2022-08-02T12:31:59;25.90;99.90
30049;DHT22;16879;50.852;15.602;2022-08-02T12:34:26;25.70;99.90
30049;DHT22;16879;50.852;15.602;2022-08-02T12:37:10;25.70;99.90
30049;DHT22;16879;50.852;15.602;2022-08-02T12:39:41;25.80;99.90
30049;DHT22;16879;50.852;15.602;2022-08-02T12:42:09;25.90;99.90
30049;DHT22;16879;50.852;15.602;2022-08-02T12:44:37;26.00;99.90
30049;DHT22;16879;50.852;15.602;2022-08-02T12:47:07;26.10;99.90
30049;DHT22;16879;50.852;15.602;2022-08-02T12:49:36;26.10;99.90
30049;DHT22;16879;50.852;15.602;2022-08-02T12:52:18;26.10;99.90
30049;DHT22;16879;50.852;15.602;2022-08-02T12:57:11;25.90;99.90
30049;DHT22;16879;50.852;15.602;2022-08-02T12:59:39;25.70;99.90
30049;DHT22;16879;50.852;15.602;2022-08-02T13:02:07;25.60;99.90
30049;DHT22;16879;50.852;15.602;2022-08-02T13:04:34;25.70;99.90
30049;DHT22;16879;50.852;15.602;2022-08-02T13:09:26;26.00;99.90
30049;DHT22;16879;50.852;15.602;2022-08-02T13:11:52;26.10;99.90
30049;DHT22;16879;50.852;15.602;2022-08-02T13:14:18;26.30;99.90
30049;DHT22;16879;50.852;15.602;2022-08-02T13:16:45;26.50;99.90
30049;DHT22;16879;50.852;15.602;2022-08-02T13:19:11;26.70;99.90
30049;DHT22;16879;50.852;15.602;2022-08-02T13:21:39;26.80;99.90
30049;DHT22;16879;50.852;15.602;2022-08-02T13:24:05;27.00;99.90
30049;DHT22;16879;50.852;15.602;2022-08-02T13:26:31;27.20;99.90
30049;DHT22;16879;50.852;15.602;2022-08-02T13:28:57;27.50;99.90
30049;DHT22;16879;50.852;15.602;2022-08-02T13:31:22;27.50;99.90
30049;DHT22;16879;50.852;15.602;2022-08-02T13:33:48;27.70;99.90
30049;DHT22;16879;50.852;15.602;2022-08-02T13:36:14;27.60;99.90
30049;DHT22;16879;50.852;15.602;2022-08-02T13:38:40;27.80;99.90
30049;DHT22;16879;50.852;15.602;2022-08-02T13:41:05;27.80;99.90
30049;DHT22;16879;50.852;15.602;2022-08-02T13:43:35;27.50;99.90
30049;DHT22;16879;50.852;15.602;2022-08-02T13:46:03;27.50;99.90
30049;DHT22;16879;50.852;15.602;2022-08-02T13:48:29;27.40;98.40
30049;DHT22;16879;50.852;15.602;2022-08-02T13:50:55;27.40;99.90
30049;DHT22;16879;50.852;15.602;2022-08-02T13:53:21;27.50;99.90
30049;DHT22;16879;50.852;15.602;2022-08-02T13:55:46;27.50;96.10
30049;DHT22;16879;50.852;15.602;2022-08-02T13:58:12;27.50;99.90
30049;DHT22;16879;50.852;15.602;2022-08-02T14:00:38;27.80;99.90
30049;DHT22;16879;50.852;15.602;2022-08-02T14:03:05;28.30;99.90
30049;DHT22;16879;50.852;15.602;2022-08-02T14:05:31;28.30;99.90
30049;DHT22;16879;50.852;15.602;2022-08-02T14:07:58;28.40;99.90
30049;DHT22;16879;50.852;15.602;2022-08-02T14:10:24;28.50;99.70
30049;DHT22;16879;50.852;15.602;2022-08-02T14:12:53;28.40;99.90
30049;DHT22;16879;50.852;15.602;2022-08-02T14:15:20;28.20;99.90
30049;DHT22;16879;50.852;15.602;2022-08-02T14:17:46;28.10;99.90
30049;DHT22;16879;50.852;15.602;2022-08-02T14:20:12;28.10;99.90
30049;DHT22;16879;50.852;15.602;2022-08-02T14:22:38;28.20;99.00
30049;DHT22;16879;50.852;15.602;2022-08-02T14:25:04;28.20;98.90
30049;DHT22;16879;50.852;15.602;2022-08-02T14:27:30;28.10;99.30
30049;DHT22;16879;50.852;15.602;2022-08-02T14:29:56;28.00;99.90
30049;DHT22;16879;50.852;15.602;2022-08-02T14:32:22;28.00;99.90
30049;DHT22;16879;50.852;15.602;2022-08-02T14:34:48;28.00;99.90
30049;DHT22;16879;50.852;15.602;2022-08-02T14:37:14;27.90;99.90
30049;DHT22;16879;50.852;15.602;2022-08-02T14:39:40;28.00;99.90
30049;DHT22;16879;50.852;15.602;2022-08-02T14:42:05;28.20;99.90
30049;DHT22;16879;50.852;15.602;2022-08-02T14:44:32;28.60;99.90
30049;DHT22;16879;50.852;15.602;2022-08-02T14:46:58;29.00;99.70
30049;DHT22;16879;50.852;15.602;2022-08-02T14:49:24;29.40;99.50
30049;DHT22;16879;50.852;15.602;2022-08-02T14:51:50;29.70;99.90
30049;DHT22;16879;50.852;15.602;2022-08-02T14:54:16;30.00;96.90
30049;DHT22;16879;50.852;15.602;2022-08-02T14:56:41;30.00;98.30
30049;DHT22;16879;50.852;15.602;2022-08-02T14:59:07;30.30;97.70
30049;DHT22;16879;50.852;15.602;2022-08-02T15:01:33;30.30;96.80
30049;DHT22;16879;50.852;15.602;2022-08-02T15:03:59;30.50;97.20
30049;DHT22;16879;50.852;15.602;2022-08-02T15:06:25;30.70;94.20
30049;DHT22;16879;50.852;15.602;2022-08-02T15:08:57;30.60;93.20
30049;DHT22;16879;50.852;15.602;2022-08-02T15:11:24;30.70;93.60
30049;DHT22;16879;50.852;15.602;2022-08-02T15:13:49;30.80;92.30
30049;DHT22;16879;50.852;15.602;2022-08-02T15:16:15;31.00;91.80
30049;DHT22;16879;50.852;15.602;2022-08-02T15:18:41;31.10;92.30
30049;DHT22;16879;50.852;15.602;2022-08-02T15:21:06;31.20;90.00
30049;DHT22;16879;50.852;15.602;2022-08-02T15:23:32;31.30;90.60
30049;DHT22;16879;50.852;15.602;2022-08-02T15:25:58;31.50;90.10
30049;DHT22;16879;50.852;15.602;2022-08-02T15:28:24;31.60;87.80
30049;DHT22;16879;50.852;15.602;2022-08-02T15:30:49;31.40;90.30
30049;DHT22;16879;50.852;15.602;2022-08-02T15:33:15;31.30;87.70
30049;DHT22;16879;50.852;15.602;2022-08-02T15:35:41;31.30;88.00
30049;DHT22;16879;50.852;15.602;2022-08-02T15:38:07;30.80;89.20
30049;DHT22;16879;50.852;15.602;2022-08-02T15:40:33;30.40;90.20
30049;DHT22;16879;50.852;15.602;2022-08-02T15:42:58;30.20;92.20
30049;DHT22;16879;50.852;15.602;2022-08-02T15:45:24;30.10;93.20
30049;DHT22;16879;50.852;15.602;2022-08-02T15:47:52;30.40;93.60
30049;DHT22;16879;50.852;15.602;2022-08-02T15:50:18;30.80;93.40
30049;DHT22;16879;50.852;15.602;2022-08-02T15:52:45;31.10;92.30
30049;DHT22;16879;50.852;15.602;2022-08-02T15:55:11;31.20;90.90
30049;DHT22;16879;50.852;15.602;2022-08-02T15:57:37;31.40;90.50
30049;DHT22;16879;50.852;15.602;2022-08-02T16:00:04;31.60;90.00
30049;DHT22;16879;50.852;15.602;2022-08-02T16:02:30;31.70;87.50
30049;DHT22;16879;50.852;15.602;2022-08-02T16:04:56;31.70;85.00
30049;DHT22;16879;50.852;15.602;2022-08-02T16:07:21;31.80;85.50
30049;DHT22;16879;50.852;15.602;2022-08-02T16:09:47;31.70;84.40
30049;DHT22;16879;50.852;15.602;2022-08-02T16:12:13;31.70;85.30
30049;DHT22;16879;50.852;15.602;2022-08-02T16:14:39;31.70;82.40
30049;DHT22;16879;50.852;15.602;2022-08-02T16:17:05;31.70;84.60
30049;DHT22;16879;50.852;15.602;2022-08-02T16:19:30;31.70;85.00
30049;DHT22;16879;50.852;15.602;2022-08-02T16:21:56;31.70;85.30
30049;DHT22;16879;50.852;15.602;2022-08-02T16:24:22;31.70;83.80
30049;DHT22;16879;50.852;15.602;2022-08-02T16:26:48;31.70;84.20
30049;DHT22;16879;50.852;15.602;2022-08-02T16:29:14;31.70;81.90
30049;DHT22;16879;50.852;15.602;2022-08-02T16:31:40;31.50;82.90
30049;DHT22;16879;50.852;15.602;2022-08-02T16:34:07;31.40;84.80
30049;DHT22;16879;50.852;15.602;2022-08-02T16:36:33;31.40;85.00
30049;DHT22;16879;50.852;15.602;2022-08-02T16:38:58;31.40;84.70
30049;DHT22;16879;50.852;15.602;2022-08-02T16:41:24;31.60;87.10
30049;DHT22;16879;50.852;15.602;2022-08-02T16:43:50;31.50;87.80
30049;DHT22;16879;50.852;15.602;2022-08-02T16:46:15;31.60;88.90
30049;DHT22;16879;50.852;15.602;2022-08-02T16:48:41;31.60;88.70